Time;durP1;ratioP1;P1;durP2;ratioP2;P2;SDS_P1;SDS_P2;PMS_P1;PMS_P2;Temp;Humidity;BMP_temperature;BMP_pressure;BME280_temperature;BME280_humidity;BME280_pressure;Samples;Min_cycle;Max_cycle;Signal;HPM_P1;HPM_P2
2021/07/16 00:00:05;;;;;;;35.63;17.52;;;;;;;;;;5071061;28;20016;-65
2021/07/16 00:02:31;;;;;;;39.95;18.58;;;;;;;;;;5069101;28;20010;-65
2021/07/16 00:04:56;;;;;;;41.67;22.23;;;;;;;;;;5071050;28;20350;-65
2021/07/16 00:07:21;;;;;;;37.13;19.60;;;;;;;;;;5070505;28;20271;-65
2021/07/16 00:09:46;;;;;;;36.47;20.13;;;;;;;;;;5070599;28;20048;-65
2021/07/16 00:12:11;;;;;;;38.63;19.45;;;;;;;;;;5070857;28;20142;-65
2021/07/16 00:14:37;;;;;;;43.43;21.27;;;;;;;;;;5070400;28;20013;-65
2021/07/16 00:17:02;;;;;;;46.20;26.00;;;;;;;;;;5050848;28;20259;-65
2021/07/16 00:19:28;;;;;;;56.90;28.75;;;;;;;;;;5067363;28;20052;-65
2021/07/16 00:21:54;;;;;;;62.13;28.88;;;;;;;;;;5069998;28;20017;-65
2021/07/16 00:24:19;;;;;;;65.07;27.80;;;;;;;;;;5056096;28;20051;-66
2021/07/16 00:26:46;;;;;;;54.13;28.73;;;;;;;;;;5050689;28;20325;-65
2021/07/16 00:29:11;;;;;;;58.55;28.77;;;;;;;;;;5050385;28;20040;-65
2021/07/16 00:31:37;;;;;;;57.30;29.02;;;;;;;;;;5050291;28;20477;-65
2021/07/16 00:34:02;;;;;;;46.05;25.02;;;;;;;;;;5051696;28;20028;-65
2021/07/16 00:36:27;;;;;;;45.40;24.00;;;;;;;;;;5052005;28;20028;-65
2021/07/16 00:38:53;;;;;;;42.95;23.42;;;;;;;;;;5061448;28;20275;-65
2021/07/16 00:41:18;;;;;;;36.17;22.77;;;;;;;;;;5050741;28;20021;-65
2021/07/16 00:43:43;;;;;;;43.45;21.25;;;;;;;;;;5050447;28;20302;-65
2021/07/16 00:46:08;;;;;;;39.80;20.70;;;;;;;;;;5050753;28;20021;-65
2021/07/16 00:48:33;;;;;;;45.17;19.67;;;;;;;;;;5052031;28;20338;-65
2021/07/16 00:50:58;;;;;;;44.73;19.27;;;;;;;;;;5070379;28;20266;-65
2021/07/16 00:53:24;;;;;;;32.07;17.53;;;;;;;;;;5070337;28;20271;-65
2021/07/16 00:55:49;;;;;;;33.45;17.70;;;;;;;;;;5070106;28;20678;-65
2021/07/16 00:58:15;;;;;;;33.77;16.53;;;;;;;;;;5070125;28;20020;-65
2021/07/16 01:00:41;;;;;;;34.15;18.08;;;;;;;;;;5070534;28;20282;-65
2021/07/16 01:03:06;;;;;;;46.58;18.52;;;;;;;;;;5063222;28;20021;-65
2021/07/16 01:05:31;;;;;;;34.80;16.77;;;;;;;;;;5054391;28;20021;-65
2021/07/16 01:07:57;;;;;;;36.95;17.52;;;;;;;;;;5054064;28;20017;-66
2021/07/16 01:10:22;;;;;;;34.60;16.50;;;;;;;;;;5054068;28;20025;-66
2021/07/16 01:12:51;;;;;;;40.42;16.73;;;;;;;;;;5054289;28;20036;-65
2021/07/16 01:15:17;;;;;;;38.03;16.48;;;;;;;;;;5059431;28;20070;-65
2021/07/16 01:17:42;;;;;;;29.20;16.63;;;;;;;;;;5073730;28;20021;-65
2021/07/16 01:20:09;;;;;;;36.17;15.82;;;;;;;;;;5072118;28;20107;-65
2021/07/16 01:22:38;;;;;;;33.63;16.65;;;;;;;;;;5073617;28;20438;-65
2021/07/16 01:25:06;;;;;;;31.83;16.60;;;;;;;;;;5073891;28;20017;-65
2021/07/16 01:27:32;;;;;;;33.03;16.15;;;;;;;;;;5073681;28;20032;-65
2021/07/16 01:29:58;;;;;;;39.97;16.27;;;;;;;;;;5073821;28;20024;-65
2021/07/16 01:32:23;;;;;;;45.70;16.85;;;;;;;;;;5073800;28;20025;-65
2021/07/16 01:34:48;;;;;;;48.63;18.70;;;;;;;;;;5071650;28;20029;-65
2021/07/16 01:37:14;;;;;;;38.30;16.37;;;;;;;;;;5072041;28;20266;-65
2021/07/16 01:39:40;;;;;;;37.58;15.90;;;;;;;;;;5073163;28;20650;-65
2021/07/16 01:42:06;;;;;;;36.10;15.38;;;;;;;;;;5073642;28;20017;-65
2021/07/16 01:44:31;;;;;;;46.78;16.25;;;;;;;;;;5073280;28;20024;-65
2021/07/16 01:46:58;;;;;;;38.70;15.85;;;;;;;;;;5055136;28;20611;-65
2021/07/16 01:49:23;;;;;;;35.00;15.20;;;;;;;;;;5053132;28;20057;-65
2021/07/16 01:51:49;;;;;;;42.33;16.42;;;;;;;;;;5071504;28;20028;-65
2021/07/16 01:54:14;;;;;;;46.10;17.20;;;;;;;;;;5060488;28;20029;-65
2021/07/16 01:56:39;;;;;;;37.33;17.30;;;;;;;;;;5035784;28;20268;-65
2021/07/16 01:59:04;;;;;;;41.60;16.33;;;;;;;;;;5052921;28;20029;-65
2021/07/16 02:01:30;;;;;;;44.83;17.25;;;;;;;;;;5053218;28;20032;-65
2021/07/16 02:03:55;;;;;;;43.80;16.75;;;;;;;;;;5053432;28;20461;-65
2021/07/16 02:06:20;;;;;;;47.73;17.03;;;;;;;;;;5061805;28;20028;-65
2021/07/16 02:08:45;;;;;;;29.57;17.17;;;;;;;;;;5061254;28;20260;-65
2021/07/16 02:11:11;;;;;;;43.65;16.40;;;;;;;;;;5052892;28;20334;-65
2021/07/16 02:13:36;;;;;;;33.10;15.85;;;;;;;;;;5052735;28;20025;-65
2021/07/16 02:16:02;;;;;;;29.15;13.85;;;;;;;;;;5072856;28;20016;-65
2021/07/16 02:18:27;;;;;;;32.95;13.32;;;;;;;;;;5061888;28;20040;-65
2021/07/16 02:20:53;;;;;;;30.98;11.88;;;;;;;;;;5052844;28;20104;-65
2021/07/16 02:23:29;;;;;;;26.83;12.55;;;;;;;;;;5053989;28;20102;-65
2021/07/16 02:25:54;;;;;;;34.08;11.77;;;;;;;;;;5052948;28;20390;-65
2021/07/16 02:28:26;;;;;;;25.77;11.10;;;;;;;;;;5052821;28;20025;-65
2021/07/16 02:30:52;;;;;;;22.70;10.60;;;;;;;;;;5072293;28;20290;-65
2021/07/16 02:33:17;;;;;;;35.63;11.95;;;;;;;;;;5072762;28;20048;-65
2021/07/16 02:35:45;;;;;;;31.55;11.90;;;;;;;;;;5072675;28;20493;-65
2021/07/16 02:38:11;;;;;;;28.48;11.43;;;;;;;;;;5069916;28;20012;-65
2021/07/16 02:40:37;;;;;;;29.98;10.38;;;;;;;;;;5072405;28;20082;-65
2021/07/16 02:43:03;;;;;;;24.15;11.80;;;;;;;;;;5072539;28;20009;-65
2021/07/16 02:45:28;;;;;;;29.90;11.43;;;;;;;;;;5072289;28;20447;-65
2021/07/16 02:47:53;;;;;;;27.58;11.13;;;;;;;;;;5072781;28;20023;-65
2021/07/16 02:50:23;;;;;;;32.03;12.35;;;;;;;;;;5072080;28;20089;-65
2021/07/16 02:52:48;;;;;;;28.52;11.32;;;;;;;;;;5056098;28;20035;-65
2021/07/16 02:55:14;;;;;;;32.10;12.15;;;;;;;;;;5052033;28;20021;-65
2021/07/16 02:57:39;;;;;;;32.55;11.90;;;;;;;;;;5051929;28;20029;-65
2021/07/16 03:00:09;;;;;;;31.33;12.00;;;;;;;;;;5052014;28;20028;-65
2021/07/16 03:02:34;;;;;;;;;;;;;;;;;;5052478;28;20017;-65
2021/07/16 03:04:59;;;;;;;34.30;11.43;;;;;;;;;;5052097;28;20030;-65
2021/07/16 03:07:25;;;;;;;32.33;11.07;;;;;;;;;;5055144;28;20017;-65
2021/07/16 03:09:50;;;;;;;24.25;11.13;;;;;;;;;;5071792;28;20065;-65
2021/07/16 03:12:15;;;;;;;32.63;11.37;;;;;;;;;;5071718;28;20040;-65
2021/07/16 03:14:40;;;;;;;26.33;12.23;;;;;;;;;;5071797;28;20255;-65
2021/07/16 03:17:06;;;;;;;29.17;13.18;;;;;;;;;;5070732;28;20757;-65
2021/07/16 03:19:32;;;;;;;33.97;14.25;;;;;;;;;;5071383;28;20020;-65
2021/07/16 03:21:57;;;;;;;32.80;14.13;;;;;;;;;;5071609;28;20415;-65
2021/07/16 03:24:22;;;;;;;34.90;13.02;;;;;;;;;;5068958;28;20336;-65
2021/07/16 03:26:47;;;;;;;31.00;13.05;;;;;;;;;;5071720;28;20099;-65
2021/07/16 03:29:13;;;;;;;34.07;11.67;;;;;;;;;;5071599;28;20016;-65
2021/07/16 03:31:38;;;;;;;27.00;11.45;;;;;;;;;;5071480;28;20255;-66
2021/07/16 03:34:04;;;;;;;39.53;14.30;;;;;;;;;;5071668;28;20459;-65
2021/07/16 03:36:29;;;;;;;33.65;12.20;;;;;;;;;;5069923;28;20540;-65
2021/07/16 03:38:54;;;;;;;25.17;11.03;;;;;;;;;;5057980;28;20028;-66
2021/07/16 03:41:19;;;;;;;32.85;11.43;;;;;;;;;;5066600;28;20270;-65
2021/07/16 03:43:44;;;;;;;23.40;10.30;;;;;;;;;;5071179;28;20222;-65
2021/07/16 03:46:10;;;;;;;26.20;9.23;;;;;;;;;;5071213;28;20257;-65
2021/07/16 03:48:35;;;;;;;32.97;10.60;;;;;;;;;;5070375;28;20024;-65
2021/07/16 03:51:00;;;;;;;32.83;10.93;;;;;;;;;;5071167;28;20754;-65
2021/07/16 03:53:25;;;;;;;26.97;9.20;;;;;;;;;;5071024;28;20495;-65
2021/07/16 03:55:51;;;;;;;32.75;10.63;;;;;;;;;;5061839;28;20299;-65
2021/07/16 03:58:16;;;;;;;21.75;9.10;;;;;;;;;;5050659;28;20017;-65
2021/07/16 04:00:41;;;;;;;33.40;9.83;;;;;;;;;;5051156;28;20040;-65
2021/07/16 04:03:06;;;;;;;34.47;10.25;;;;;;;;;;5051011;28;20334;-65
2021/07/16 04:05:32;;;;;;;36.17;10.13;;;;;;;;;;5050960;28;20119;-65
2021/07/16 04:08:03;;;;;;;26.02;9.48;;;;;;;;;;5050854;28;20255;-65
2021/07/16 04:10:29;;;;;;;23.80;9.00;;;;;;;;;;5051834;28;20028;-65
2021/07/16 04:12:55;;;;;;;28.83;9.35;;;;;;;;;;5066724;28;20028;-65
2021/07/16 04:15:21;;;;;;;34.10;12.05;;;;;;;;;;5069708;28;20020;-65
2021/07/16 04:17:46;;;;;;;33.15;10.40;;;;;;;;;;5067516;28;20570;-65
2021/07/16 04:20:12;;;;;;;20.95;9.02;;;;;;;;;;5065806;28;20477;-65
2021/07/16 04:22:39;;;;;;;24.13;8.65;;;;;;;;;;5054933;28;20370;-65
2021/07/16 04:25:04;;;;;;;31.55;10.90;;;;;;;;;;5063333;28;20024;-65
2021/07/16 04:27:30;;;;;;;35.35;14.48;;;;;;;;;;5055875;28;20023;-65
2021/07/16 04:29:55;;;;;;;27.50;14.27;;;;;;;;;;5056226;28;20504;-65
2021/07/16 04:32:20;;;;;;;35.25;16.77;;;;;;;;;;5052105;28;20268;-65
2021/07/16 04:34:45;;;;;;;38.73;17.60;;;;;;;;;;5051039;28;20484;-65
2021/07/16 04:37:11;;;;;;;38.17;18.00;;;;;;;;;;5068137;28;20298;-65
2021/07/16 04:39:36;;;;;;;55.70;19.30;;;;;;;;;;5069793;28;20048;-65
2021/07/16 04:42:01;;;;;;;50.23;22.57;;;;;;;;;;5069451;28;20024;-65
2021/07/16 04:44:27;;;;;;;33.25;18.23;;;;;;;;;;5059701;28;20268;-65
2021/07/16 04:46:53;;;;;;;43.28;19.27;;;;;;;;;;5050899;28;20017;-65
2021/07/16 04:49:18;;;;;;;42.75;18.25;;;;;;;;;;5054553;28;20051;-65
2021/07/16 04:51:43;;;;;;;44.13;17.88;;;;;;;;;;5056504;28;20032;-65
2021/07/16 04:54:10;;;;;;;40.33;18.52;;;;;;;;;;5067096;28;20384;-65
2021/07/16 04:56:35;;;;;;;35.80;16.77;;;;;;;;;;5053729;28;20017;-65
2021/07/16 04:59:01;;;;;;;39.97;15.60;;;;;;;;;;5079506;22;20418;-66
2021/07/16 05:01:26;;;;;;;37.45;16.52;;;;;;;;;;5070038;28;20066;-65
2021/07/16 05:03:52;;;;;;;33.58;15.68;;;;;;;;;;5069631;28;20500;-65
2021/07/16 05:06:18;;;;;;;41.25;16.65;;;;;;;;;;5070244;28;20035;-65
2021/07/16 05:08:43;;;;;;;36.08;16.08;;;;;;;;;;5060276;28;20100;-65
2021/07/16 05:11:09;;;;;;;38.40;16.23;;;;;;;;;;5070180;28;20024;-67
2021/07/16 05:13:37;;;;;;;43.35;15.32;;;;;;;;;;5058395;28;20408;-65
2021/07/16 05:16:03;;;;;;;35.22;17.05;;;;;;;;;;5070229;28;20462;-65
2021/07/16 05:18:28;;;;;;;40.60;14.32;;;;;;;;;;5062762;28;20016;-65
2021/07/16 05:20:53;;;;;;;28.38;15.00;;;;;;;;;;5060626;28;20052;-65
2021/07/16 05:23:19;;;;;;;38.00;16.20;;;;;;;;;;5049889;28;20468;-65
2021/07/16 05:25:44;;;;;;;36.05;15.85;;;;;;;;;;5054274;28;20016;-65
2021/07/16 05:28:09;;;;;;;29.63;14.85;;;;;;;;;;5049572;28;20120;-65
2021/07/16 05:30:34;;;;;;;33.20;18.00;;;;;;;;;;5058676;28;20066;-65
2021/07/16 05:32:59;;;;;;;34.23;15.63;;;;;;;;;;5055865;28;20025;-65
2021/07/16 05:35:25;;;;;;;32.45;16.98;;;;;;;;;;5058072;28;20271;-65
2021/07/16 05:37:50;;;;;;;40.25;16.30;;;;;;;;;;5049364;28;20035;-65
2021/07/16 05:40:15;;;;;;;32.80;16.25;;;;;;;;;;5064909;28;20020;-65
2021/07/16 05:42:41;;;;;;;35.22;16.00;;;;;;;;;;5066874;28;20020;-65
2021/07/16 05:45:06;;;;;;;28.00;14.40;;;;;;;;;;5068485;28;20023;-65
2021/07/16 05:47:31;;;;;;;45.80;16.25;;;;;;;;;;5051175;28;20297;-65
2021/07/16 05:49:57;;;;;;;44.08;15.70;;;;;;;;;;5071375;28;20503;-65
2021/07/16 05:52:24;;;;;;;34.73;14.13;;;;;;;;;;5083547;28;20032;-65
2021/07/16 05:54:49;;;;;;;33.03;14.15;;;;;;;;;;5059185;28;20271;-65
2021/07/16 05:57:14;;;;;;;40.27;14.33;;;;;;;;;;5069046;28;20077;-65
2021/07/16 05:59:39;;;;;;;32.40;14.77;;;;;;;;;;5050701;28;20041;-65
2021/07/16 06:02:04;;;;;;;37.00;16.92;;;;;;;;;;5067367;28;20342;-65
2021/07/16 06:04:30;;;;;;;34.15;16.20;;;;;;;;;;5069123;28;20024;-65
2021/07/16 06:06:55;;;;;;;32.08;15.32;;;;;;;;;;5071108;28;20032;-65
2021/07/16 06:09:20;;;;;;;34.85;15.20;;;;;;;;;;5052941;28;20029;-65
2021/07/16 06:11:45;;;;;;;35.73;14.77;;;;;;;;;;5060116;28;20028;-65
2021/07/16 06:14:11;;;;;;;39.67;15.43;;;;;;;;;;5069266;28;20358;-65
2021/07/16 06:16:36;;;;;;;48.70;16.50;;;;;;;;;;5060589;28;20056;-65
2021/07/16 06:19:01;;;;;;;40.83;15.53;;;;;;;;;;5073235;28;20029;-65
2021/07/16 06:21:26;;;;;;;46.27;15.67;;;;;;;;;;5082345;28;20274;-65
2021/07/16 06:23:52;;;;;;;36.95;14.85;;;;;;;;;;5070491;28;20816;-65
2021/07/16 06:26:20;;;;;;;33.50;15.18;;;;;;;;;;5069998;28;20021;-64
2021/07/16 06:28:45;;;;;;;37.05;15.02;;;;;;;;;;5071810;28;20035;-65
2021/07/16 06:31:10;;;;;;;39.50;16.00;;;;;;;;;;5071656;28;20016;-65
2021/07/16 06:33:35;;;;;;;50.23;15.30;;;;;;;;;;5061201;28;20013;-65
2021/07/16 06:36:01;;;;;;;39.00;13.95;;;;;;;;;;5053546;28;20271;-65
2021/07/16 06:38:26;;;;;;;36.37;15.33;;;;;;;;;;5054878;28;20027;-65
2021/07/16 06:40:51;;;;;;;45.77;14.27;;;;;;;;;;5067577;28;20673;-65
2021/07/16 06:43:16;;;;;;;33.77;14.97;;;;;;;;;;5071988;28;20269;-65
2021/07/16 06:45:41;;;;;;;40.50;14.73;;;;;;;;;;5071646;28;20258;-65
2021/07/16 06:48:07;;;;;;;36.10;13.70;;;;;;;;;;5071344;28;20751;-65
2021/07/16 06:50:32;;;;;;;33.90;13.70;;;;;;;;;;5087684;28;20270;-66
2021/07/16 06:52:58;;;;;;;51.30;16.50;;;;;;;;;;5092620;28;20464;-66
2021/07/16 06:55:23;;;;;;;37.10;13.13;;;;;;;;;;5078814;28;20409;-66
2021/07/16 06:57:48;;;;;;;29.42;13.07;;;;;;;;;;5051926;28;20175;-65
2021/07/16 07:00:14;;;;;;;37.70;14.43;;;;;;;;;;5052308;28;20032;-65
2021/07/16 07:02:39;;;;;;;43.60;13.60;;;;;;;;;;5052031;28;20033;-66
2021/07/16 07:05:05;;;;;;;42.33;12.83;;;;;;;;;;5051663;28;20384;-65
2021/07/16 07:07:30;;;;;;;37.22;13.35;;;;;;;;;;5060625;28;20277;-66
2021/07/16 07:09:55;;;;;;;50.42;16.35;;;;;;;;;;5066712;28;20089;-66
2021/07/16 07:12:21;;;;;;;36.67;14.50;;;;;;;;;;5071676;28;20383;-66
2021/07/16 07:14:47;;;;;;;45.40;14.65;;;;;;;;;;5072414;28;20251;-65
2021/07/16 07:17:12;;;;;;;40.67;15.38;;;;;;;;;;5068735;28;20686;-66
2021/07/16 07:19:37;;;;;;;65.20;18.30;;;;;;;;;;5051609;28;20128;-65
2021/07/16 07:22:03;;;;;;;46.30;17.27;;;;;;;;;;5060967;28;20262;-65
2021/07/16 07:24:28;;;;;;;53.05;16.83;;;;;;;;;;5056832;28;20260;-65
2021/07/16 07:26:54;;;;;;;39.37;16.17;;;;;;;;;;5062064;28;20029;-65
2021/07/16 07:29:19;;;;;;;43.58;16.38;;;;;;;;;;5051233;28;20297;-65
2021/07/16 07:31:46;;;;;;;48.25;16.27;;;;;;;;;;5063512;28;20514;-65
2021/07/16 07:34:13;;;;;;;46.78;16.63;;;;;;;;;;5055975;28;20013;-64
2021/07/16 07:36:40;;;;;;;41.28;16.52;;;;;;;;;;5059697;28;20089;-65
2021/07/16 07:39:08;;;;;;;54.75;17.52;;;;;;;;;;5069680;28;20105;-65
2021/07/16 07:41:35;;;;;;;46.60;16.95;;;;;;;;;;5059134;28;20070;-65
2021/07/16 07:44:02;;;;;;;46.35;16.30;;;;;;;;;;5063872;28;20031;-64
2021/07/16 07:46:30;;;;;;;47.75;16.63;;;;;;;;;;5065066;28;20074;-65
2021/07/16 07:48:57;;;;;;;44.05;17.40;;;;;;;;;;5052611;28;20063;-66
2021/07/16 07:51:24;;;;;;;60.63;18.85;;;;;;;;;;5056845;28;20029;-66
2021/07/16 07:53:51;;;;;;;40.15;16.17;;;;;;;;;;5065222;28;20074;-65
2021/07/16 07:56:19;;;;;;;45.22;16.20;;;;;;;;;;5056019;28;20029;-64
2021/07/16 07:58:45;;;;;;;41.92;16.85;;;;;;;;;;5060589;28;20031;-65
2021/07/16 08:01:10;;;;;;;32.83;16.83;;;;;;;;;;5064966;28;20046;-65
2021/07/16 08:03:36;;;;;;;36.27;14.30;;;;;;;;;;5067726;28;20017;-65
2021/07/16 08:06:01;;;;;;;33.92;14.55;;;;;;;;;;5064437;28;20554;-65
2021/07/16 08:08:26;;;;;;;29.13;13.23;;;;;;;;;;5057045;28;20034;-65
2021/07/16 08:10:51;;;;;;;27.45;13.25;;;;;;;;;;5056824;28;20027;-65
2021/07/16 08:13:17;;;;;;;36.13;13.47;;;;;;;;;;5057354;28;20020;-65
2021/07/16 08:15:42;;;;;;;30.58;13.85;;;;;;;;;;5062994;28;20270;-65
2021/07/16 08:18:07;;;;;;;32.42;14.13;;;;;;;;;;5064048;28;20021;-65
2021/07/16 08:20:32;;;;;;;32.53;13.95;;;;;;;;;;5051544;28;20494;-65
2021/07/16 08:22:57;;;;;;;23.73;13.03;;;;;;;;;;5060746;28;20021;-65
2021/07/16 08:25:23;;;;;;;29.07;13.83;;;;;;;;;;5063928;28;20308;-65
2021/07/16 08:27:48;;;;;;;27.73;13.38;;;;;;;;;;5051434;28;20640;-65
2021/07/16 08:30:13;;;;;;;27.55;13.38;;;;;;;;;;5065774;28;20036;-64
2021/07/16 08:32:38;;;;;;;37.78;15.27;;;;;;;;;;5057893;28;20021;-65
2021/07/16 08:35:05;;;;;;;30.23;13.45;;;;;;;;;;5051067;28;20053;-65
2021/07/16 08:37:30;;;;;;;34.17;14.10;;;;;;;;;;5057383;28;20019;-65
2021/07/16 08:39:57;;;;;;;38.47;12.98;;;;;;;;;;5050070;28;20096;-65
2021/07/16 08:42:24;;;;;;;32.83;13.70;;;;;;;;;;5064380;28;20021;-65
2021/07/16 08:44:49;;;;;;;25.63;13.95;;;;;;;;;;5064907;28;20407;-65
2021/07/16 08:47:16;;;;;;;28.83;12.65;;;;;;;;;;5063833;28;20029;-65
2021/07/16 08:49:41;;;;;;;25.60;14.02;;;;;;;;;;5067573;28;20024;-65
2021/07/16 08:52:06;;;;;;;30.07;13.27;;;;;;;;;;5062145;28;20025;-65
2021/07/16 08:54:32;;;;;;;26.90;12.43;;;;;;;;;;5060604;28;21006;-67
2021/07/16 08:56:57;;;;;;;24.40;12.13;;;;;;;;;;5057513;28;20163;-65
2021/07/16 08:59:22;;;;;;;21.87;11.80;;;;;;;;;;5063339;28;20041;-65
2021/07/16 09:01:47;;;;;;;35.47;13.27;;;;;;;;;;5069146;28;20342;-65
2021/07/16 09:04:13;;;;;;;26.47;13.07;;;;;;;;;;5062778;28;20752;-65
2021/07/16 09:06:42;;;;;;;29.90;12.15;;;;;;;;;;5055355;28;20265;-65
2021/07/16 09:09:07;;;;;;;28.15;12.90;;;;;;;;;;5056929;28;20079;-65
2021/07/16 09:11:37;;;;;;;21.57;11.57;;;;;;;;;;5062800;28;20164;-65
2021/07/16 09:14:02;;;;;;;30.08;11.52;;;;;;;;;;5068522;28;20793;-67
2021/07/16 09:16:27;;;;;;;26.50;11.13;;;;;;;;;;5069667;28;20020;-65
2021/07/16 09:18:56;;;;;;;25.50;12.17;;;;;;;;;;5069802;28;20254;-65
2021/07/16 09:21:21;;;;;;;24.88;11.52;;;;;;;;;;5055064;28;20719;-65
2021/07/16 09:23:47;;;;;;;30.70;11.32;;;;;;;;;;5073845;28;20063;-65
2021/07/16 09:26:14;;;;;;;26.40;10.80;;;;;;;;;;5074077;28;20016;-65
2021/07/16 09:28:43;;;;;;;22.20;11.35;;;;;;;;;;5073856;28;20025;-65
2021/07/16 09:31:08;;;;;;;32.57;13.83;;;;;;;;;;5068622;28;20029;-67
2021/07/16 09:33:40;;;;;;;22.92;12.55;;;;;;;;;;5055095;28;20024;-64
2021/07/16 09:36:06;;;;;;;35.15;13.82;;;;;;;;;;5053635;28;20033;-64
2021/07/16 09:38:31;;;;;;;22.27;13.10;;;;;;;;;;5063148;28;20032;-65
2021/07/16 09:41:04;;;;;;;27.88;14.18;;;;;;;;;;5077925;28;20078;-65
2021/07/16 09:43:30;;;;;;;26.67;15.70;;;;;;;;;;5071735;28;20016;-64
2021/07/16 09:46:05;;;;;;;28.70;14.40;;;;;;;;;;5072746;28;20108;-65
2021/07/16 09:48:34;;;;;;;27.70;13.63;;;;;;;;;;5063008;28;20022;-64
2021/07/16 09:51:16;;;;;;;23.27;13.10;;;;;;;;;;5058510;28;20027;-65
2021/07/16 09:53:43;;;;;;;25.25;13.43;;;;;;;;;;5059749;28;20077;-65
2021/07/16 09:56:09;;;;;;;28.67;12.98;;;;;;;;;;5071801;28;20027;-65
2021/07/16 09:58:34;;;;;;;30.45;12.02;;;;;;;;;;5059717;28;20028;-65
2021/07/16 10:00:59;;;;;;;24.63;11.27;;;;;;;;;;5060890;28;20024;-64
2021/07/16 10:03:25;;;;;;;30.85;12.65;;;;;;;;;;5064047;28;20699;-65
2021/07/16 10:05:50;;;;;;;20.13;11.43;;;;;;;;;;5061246;28;20580;-64
2021/07/16 10:08:17;;;;;;;22.90;11.10;;;;;;;;;;5060921;28;20025;-65
2021/07/16 10:10:43;;;;;;;20.08;12.18;;;;;;;;;;5066356;28;20056;-65
2021/07/16 10:13:10;;;;;;;27.45;10.27;;;;;;;;;;5062426;28;20481;-65
2021/07/16 10:15:36;;;;;;;22.95;10.70;;;;;;;;;;5069116;28;20024;-65
2021/07/16 10:18:02;;;;;;;21.15;9.88;;;;;;;;;;5063513;28;20401;-65
2021/07/16 10:20:27;;;;;;;22.73;9.27;;;;;;;;;;5063813;28;20025;-65
2021/07/16 10:22:53;;;;;;;22.63;9.25;;;;;;;;;;5065081;28;20026;-65
2021/07/16 10:25:19;;;;;;;34.60;9.57;;;;;;;;;;5068451;28;20575;-64
2021/07/16 10:27:45;;;;;;;26.13;9.13;;;;;;;;;;5071017;28;20047;-65
2021/07/16 10:30:16;;;;;;;20.23;8.43;;;;;;;;;;5063707;28;20405;-64
2021/07/16 10:32:54;;;;;;;20.60;7.90;;;;;;;;;;5058465;28;20025;-65
2021/07/16 10:35:23;;;;;;;18.52;9.05;;;;;;;;;;5069397;28;20024;-65
2021/07/16 10:37:50;;;;;;;33.78;15.73;;;;;;;;;;5072201;28;20076;-65
2021/07/16 10:40:34;;;;;;;38.25;19.13;;;;;;;;;;5062140;28;20035;-65
2021/07/16 10:43:00;;;;;;;36.20;17.92;;;;;;;;;;5060756;28;20012;-65
2021/07/16 10:45:31;;;;;;;41.50;18.88;;;;;;;;;;5065577;28;21313;-65
2021/07/16 10:48:08;;;;;;;35.70;18.33;;;;;;;;;;5052054;28;20040;-65
2021/07/16 10:50:36;;;;;;;33.50;18.98;;;;;;;;;;5053724;28;20036;-65
2021/07/16 10:53:02;;;;;;;34.35;16.77;;;;;;;;;;5052461;28;20013;-65
2021/07/16 10:55:30;;;;;;;38.97;17.02;;;;;;;;;;5064445;28;20031;-65
2021/07/16 10:57:55;;;;;;;36.20;18.40;;;;;;;;;;5063814;28;20028;-65
2021/07/16 11:00:50;;;;;;;31.45;17.80;;;;;;;;;;5085545;22;20056;-67
2021/07/16 11:03:16;;;;;;;35.40;19.27;;;;;;;;;;5031397;28;20044;-67
2021/07/16 11:05:45;;;;;;;32.20;19.17;;;;;;;;;;5055235;28;20024;-67
2021/07/16 11:08:26;;;;;;;34.35;18.92;;;;;;;;;;5070834;28;20017;-67
2021/07/16 11:10:56;;;;;;;34.35;18.92;;;;;;;;;;5037591;28;20044;-67
2021/07/16 11:13:37;;;;;;;41.80;20.00;;;;;;;;;;5034211;28;20025;-67
2021/07/16 11:18:52;;;;;;;43.55;23.83;;;;;;;;;;5032133;28;20033;-67
2021/07/16 11:21:36;;;;;;;50.00;26.02;;;;;;;;;;5041168;28;20083;-67
2021/07/16 11:24:01;;;;;;;49.22;25.88;;;;;;;;;;5036783;28;20138;-67
2021/07/16 11:26:27;;;;;;;42.30;26.25;;;;;;;;;;5013629;28;20045;-67
2021/07/16 11:28:52;;;;;;;47.67;26.03;;;;;;;;;;5045612;28;20040;-68
2021/07/16 11:31:17;;;;;;;54.30;27.27;;;;;;;;;;5048884;28;20032;-68
2021/07/16 11:33:53;;;;;;;54.38;25.85;;;;;;;;;;5044976;28;20310;-66
2021/07/16 11:36:19;;;;;;;48.88;25.90;;;;;;;;;;5051090;28;20025;-67
2021/07/16 11:38:52;;;;;;;48.33;26.27;;;;;;;;;;5044880;28;20020;-66
2021/07/16 11:41:17;;;;;;;56.22;25.60;;;;;;;;;;5047896;28;20798;-67
2021/07/16 11:43:49;;;;;;;48.90;25.90;;;;;;;;;;5047626;28;20033;-65
2021/07/16 11:46:24;;;;;;;47.90;25.08;;;;;;;;;;5041120;28;20020;-67
2021/07/16 11:48:49;;;;;;;48.72;23.63;;;;;;;;;;5038882;28;20477;-67
2021/07/16 11:51:14;;;;;;;38.23;19.47;;;;;;;;;;5045327;28;20044;-67
2021/07/16 11:53:39;;;;;;;33.20;18.63;;;;;;;;;;5032912;28;20029;-66
2021/07/16 11:56:12;;;;;;;36.37;17.27;;;;;;;;;;5050587;28;20260;-67
2021/07/16 11:58:46;;;;;;;35.03;18.40;;;;;;;;;;5044905;28;20298;-66
2021/07/16 12:01:11;;;;;;;39.05;18.40;;;;;;;;;;5014760;28;20029;-67
2021/07/16 12:03:37;;;;;;;43.60;17.40;;;;;;;;;;5044217;28;20029;-67
2021/07/16 12:06:04;;;;;;;44.40;19.57;;;;;;;;;;5052550;28;20267;-67
2021/07/16 12:08:30;;;;;;;35.85;18.88;;;;;;;;;;5048930;28;20271;-67
2021/07/16 12:11:03;;;;;;;40.13;20.05;;;;;;;;;;5044282;28;20024;-67
2021/07/16 12:13:28;;;;;;;37.08;18.90;;;;;;;;;;5036558;28;20512;-68
2021/07/16 12:16:01;;;;;;;39.47;20.42;;;;;;;;;;5042447;28;20028;-68
2021/07/16 12:18:26;;;;;;;39.45;19.58;;;;;;;;;;5037823;28;20029;-68
2021/07/16 12:20:54;;;;;;;36.72;18.08;;;;;;;;;;5039830;28;20038;-67
2021/07/16 12:23:20;;;;;;;36.80;16.52;;;;;;;;;;5046689;28;20025;-68
2021/07/16 12:25:45;;;;;;;30.65;16.83;;;;;;;;;;5033719;28;20383;-68
2021/07/16 12:28:18;;;;;;;48.33;20.45;;;;;;;;;;5043509;28;20456;-68
2021/07/16 12:30:43;;;;;;;36.20;15.95;;;;;;;;;;5047251;28;20032;-68
2021/07/16 12:33:08;;;;;;;32.88;15.85;;;;;;;;;;5035611;28;20026;-67
2021/07/16 12:35:40;;;;;;;36.63;15.20;;;;;;;;;;5030754;28;20469;-67
2021/07/16 12:38:07;;;;;;;37.67;16.30;;;;;;;;;;5031119;28;20508;-67
2021/07/16 12:40:33;;;;;;;40.45;15.50;;;;;;;;;;5032903;28;20420;-68
2021/07/16 12:43:18;;;;;;;35.25;15.68;;;;;;;;;;5044167;28;20095;-68
2021/07/16 12:45:55;;;;;;;36.67;15.63;;;;;;;;;;5042872;28;20049;-67
2021/07/16 12:48:27;;;;;;;45.97;17.52;;;;;;;;;;5039916;28;20643;-68
2021/07/16 12:50:53;;;;;;;38.08;16.65;;;;;;;;;;5048948;28;20021;-68
2021/07/16 12:53:30;;;;;;;31.73;15.85;;;;;;;;;;5049656;28;20025;-68
2021/07/16 12:55:55;;;;;;;33.33;15.55;;;;;;;;;;5043884;28;20029;-68
2021/07/16 12:58:30;;;;;;;26.67;16.43;;;;;;;;;;5053885;28;20017;-68
2021/07/16 13:00:56;;;;;;;31.42;15.48;;;;;;;;;;5039849;28;20287;-68
2021/07/16 13:03:23;;;;;;;38.65;15.23;;;;;;;;;;5036191;28;20024;-68
2021/07/16 13:05:49;;;;;;;41.20;14.52;;;;;;;;;;5039281;28;20013;-68
2021/07/16 13:08:21;;;;;;;31.00;14.90;;;;;;;;;;5044127;28;20032;-67
2021/07/16 13:10:52;;;;;;;38.65;14.15;;;;;;;;;;5042362;28;20025;-67
2021/07/16 13:13:18;;;;;;;35.97;13.88;;;;;;;;;;5045711;28;20024;-68
2021/07/16 13:15:44;;;;;;;33.80;14.15;;;;;;;;;;5045010;28;20496;-68
2021/07/16 13:18:10;;;;;;;45.65;15.38;;;;;;;;;;5045663;28;20436;-68
2021/07/16 13:20:35;;;;;;;30.13;12.60;;;;;;;;;;5053847;28;20031;-68
2021/07/16 13:23:01;;;;;;;41.85;14.88;;;;;;;;;;5038300;28;20021;-68
2021/07/16 13:25:26;;;;;;;38.60;15.02;;;;;;;;;;5033912;28;20032;-68
2021/07/16 13:27:51;;;;;;;34.93;16.27;;;;;;;;;;5034189;28;20036;-68
2021/07/16 13:30:16;;;;;;;39.83;17.60;;;;;;;;;;5033462;28;20025;-68
2021/07/16 13:32:42;;;;;;;49.13;19.20;;;;;;;;;;5042447;28;20028;-68
2021/07/16 13:35:08;;;;;;;43.28;19.30;;;;;;;;;;5050338;28;20481;-68
2021/07/16 13:37:35;;;;;;;37.88;18.20;;;;;;;;;;5038341;28;20052;-68
2021/07/16 13:40:00;;;;;;;40.17;20.23;;;;;;;;;;5033312;28;20397;-68
2021/07/16 13:42:26;;;;;;;35.25;17.52;;;;;;;;;;5042651;28;20013;-68
2021/07/16 13:44:51;;;;;;;35.47;16.67;;;;;;;;;;5041645;28;20056;-68
2021/07/16 13:47:17;;;;;;;36.85;14.68;;;;;;;;;;5050353;28;20075;-67
2021/07/16 13:49:43;;;;;;;34.90;14.45;;;;;;;;;;5049821;28;20075;-68
2021/07/16 13:52:08;;;;;;;37.47;13.57;;;;;;;;;;5062456;28;20094;-68
2021/07/16 13:54:33;;;;;;;41.17;15.05;;;;;;;;;;5045911;28;20532;-68
2021/07/16 13:56:58;;;;;;;47.50;15.02;;;;;;;;;;5047253;28;20029;-68
2021/07/16 13:59:24;;;;;;;39.10;14.68;;;;;;;;;;5051307;28;20029;-68
2021/07/16 14:01:55;;;;;;;42.40;16.00;;;;;;;;;;5047278;28;20033;-68
2021/07/16 14:04:20;;;;;;;49.20;15.32;;;;;;;;;;5043428;28;20020;-68
2021/07/16 14:06:46;;;;;;;37.67;14.77;;;;;;;;;;5051064;28;20017;-68
2021/07/16 14:09:11;;;;;;;46.70;14.17;;;;;;;;;;5039337;28;20261;-68
2021/07/16 14:11:36;;;;;;;36.63;14.90;;;;;;;;;;5033313;28;20086;-68
2021/07/16 14:14:01;;;;;;;42.77;15.00;;;;;;;;;;5047326;28;20028;-68
2021/07/16 14:16:26;;;;;;;46.67;15.32;;;;;;;;;;5038677;28;20605;-68